createdAt,value
2019-03-23T00:01:37.359Z,324.23
2019-03-23T00:04:05.833Z,323.38
2019-03-23T00:06:34.403Z,329.07
2019-03-23T00:09:03.807Z,287.33
2019-03-23T00:11:32.236Z,286.50
2019-03-23T00:14:00.665Z,235.63
2019-03-23T00:16:29.049Z,229.80
2019-03-23T00:18:57.519Z,209.92
2019-03-23T00:21:26.000Z,191.55
2019-03-23T00:23:54.395Z,214.53
2019-03-23T00:26:22.789Z,207.60
2019-03-23T00:28:51.206Z,212.42
2019-03-23T00:31:19.603Z,207.80
2019-03-23T00:33:48.127Z,198.32
2019-03-23T00:36:16.499Z,218.40
2019-03-23T00:38:44.887Z,199.97
2019-03-23T00:41:14.359Z,208.87
2019-03-23T00:43:42.785Z,222.30
2019-03-23T00:46:11.181Z,208.40
2019-03-23T00:48:39.630Z,209.32
2019-03-23T00:51:08.096Z,191.60
2019-03-23T00:53:36.490Z,200.65
2019-03-23T00:56:04.911Z,200.87
2019-03-23T00:58:33.314Z,178.53
2019-03-23T01:01:01.793Z,186.45
2019-03-23T01:03:30.223Z,195.38
2019-03-23T01:05:58.727Z,203.70
2019-03-23T01:08:27.119Z,205.90
2019-03-23T01:10:55.589Z,188.03
2019-03-23T01:13:23.988Z,192.57
2019-03-23T01:15:52.471Z,207.50
2019-03-23T01:18:20.870Z,189.85
2019-03-23T01:20:50.023Z,202.13
2019-03-23T01:23:18.670Z,185.70
2019-03-23T01:25:47.067Z,197.82
2019-03-23T01:28:15.528Z,187.07
2019-03-23T01:30:43.991Z,189.15
2019-03-23T01:33:12.382Z,194.65
2019-03-23T01:35:40.821Z,194.05
2019-03-23T01:38:09.361Z,200.80
2019-03-23T01:40:37.772Z,183.18
2019-03-23T01:43:06.291Z,187.95
2019-03-23T01:45:54.129Z,186.77
2019-03-23T01:48:22.538Z,181.43
2019-03-23T01:50:50.930Z,184.67
2019-03-23T01:53:19.412Z,190.10
2019-03-23T01:55:47.836Z,184.40
2019-03-23T01:58:16.262Z,164.70
2019-03-23T02:00:44.686Z,179.63
2019-03-23T02:03:13.080Z,178.68
2019-03-23T02:05:41.612Z,185.37
2019-03-23T02:08:10.044Z,195.00
2019-03-23T02:10:38.444Z,192.35
2019-03-23T02:13:06.907Z,189.62
2019-03-23T02:15:35.308Z,186.60
2019-03-23T02:18:03.708Z,181.45
2019-03-23T02:20:32.167Z,183.25
2019-03-23T02:23:00.551Z,171.35
2019-03-23T02:25:28.957Z,202.28
2019-03-23T02:27:57.347Z,181.97
2019-03-23T02:30:25.771Z,185.28
2019-03-23T02:32:54.149Z,180.35
2019-03-23T02:35:22.562Z,194.62
2019-03-23T02:37:50.952Z,191.70
2019-03-23T02:40:19.364Z,196.60
2019-03-23T02:42:47.753Z,178.35
2019-03-23T02:45:16.206Z,198.07
2019-03-23T02:47:44.673Z,189.10
2019-03-23T02:50:13.093Z,193.15
2019-03-23T02:52:41.535Z,205.32
2019-03-23T02:55:10.435Z,176.20
2019-03-23T02:57:38.858Z,176.65
2019-03-23T03:00:14.607Z,198.28
2019-03-23T03:02:43.016Z,182.80
2019-03-23T03:05:11.485Z,193.50
2019-03-23T03:07:42.616Z,208.68
2019-03-23T03:10:11.317Z,197.15
2019-03-23T03:12:39.725Z,212.40
2019-03-23T03:15:09.015Z,193.32
2019-03-23T03:17:37.405Z,200.75
2019-03-23T03:20:07.617Z,208.50
2019-03-23T03:22:36.105Z,198.13
2019-03-23T03:25:06.399Z,195.15
2019-03-23T03:27:34.827Z,213.07
2019-03-23T03:30:03.571Z,194.35
2019-03-23T03:32:32.072Z,207.77
2019-03-23T03:35:00.755Z,210.88
2019-03-23T03:37:29.234Z,218.35
2019-03-23T03:39:57.767Z,213.30
2019-03-23T03:42:26.216Z,213.35
2019-03-23T03:44:54.588Z,216.73
2019-03-23T03:47:23.020Z,189.43
2019-03-23T03:49:51.420Z,215.50
2019-03-23T03:52:19.879Z,226.12
2019-03-23T03:54:48.290Z,203.52
2019-03-23T03:57:16.699Z,192.82
2019-03-23T03:59:45.191Z,211.45
2019-03-23T04:02:13.591Z,208.25
2019-03-23T04:04:42.144Z,185.45
2019-03-23T04:07:10.528Z,192.80
2019-03-23T04:09:40.459Z,220.65
2019-03-23T04:12:09.078Z,209.72
2019-03-23T04:14:37.461Z,212.80
2019-03-23T04:17:05.922Z,205.37
2019-03-23T04:19:34.321Z,208.93
2019-03-23T04:22:02.924Z,215.32
2019-03-23T04:24:31.292Z,216.97
2019-03-23T04:27:01.418Z,199.97
2019-03-23T04:29:29.840Z,207.07
2019-03-23T04:31:58.364Z,203.50
2019-03-23T04:34:26.753Z,216.42
2019-03-23T04:36:55.226Z,219.65
2019-03-23T04:39:23.641Z,222.82
2019-03-23T04:41:53.051Z,217.95
2019-03-23T04:44:21.465Z,227.43
2019-03-23T04:46:49.888Z,201.88
2019-03-23T04:49:18.309Z,203.90
2019-03-23T04:51:46.765Z,205.70
2019-03-23T04:54:15.204Z,202.55
2019-03-23T04:56:43.855Z,211.20
2019-03-23T04:59:12.490Z,189.95
2019-03-23T05:01:40.868Z,210.48
2019-03-23T05:04:12.788Z,221.45
2019-03-23T05:06:42.592Z,201.82
2019-03-23T05:09:11.126Z,205.80
2019-03-23T05:11:39.577Z,194.52
2019-03-23T05:14:08.024Z,212.85
2019-03-23T05:16:36.414Z,194.50
2019-03-23T05:19:04.823Z,191.98
2019-03-23T05:21:33.339Z,198.35
2019-03-23T05:24:01.802Z,196.50
2019-03-23T05:26:30.211Z,198.13
2019-03-23T05:28:58.799Z,192.13
2019-03-23T05:31:27.187Z,195.43
2019-03-23T05:33:55.626Z,197.40
2019-03-23T05:36:24.170Z,195.53
2019-03-23T05:38:52.698Z,178.23
2019-03-23T05:41:21.168Z,180.80
2019-03-23T05:43:49.565Z,197.60
2019-03-23T05:46:18.003Z,201.62
2019-03-23T05:48:46.381Z,200.30
2019-03-23T05:51:14.801Z,180.63
2019-03-23T05:53:43.254Z,167.60
2019-03-23T05:56:11.698Z,170.45
2019-03-23T05:58:40.089Z,162.43
2019-03-23T06:01:12.543Z,170.35
2019-03-23T06:03:40.989Z,184.00
2019-03-23T06:06:09.511Z,184.03
2019-03-23T06:08:37.909Z,173.35
2019-03-23T06:11:06.325Z,173.80
2019-03-23T06:13:34.808Z,182.02
2019-03-23T06:16:03.221Z,161.47
2019-03-23T06:18:31.635Z,168.43
2019-03-23T06:21:03.268Z,158.82
2019-03-23T06:23:31.702Z,160.15
2019-03-23T06:26:00.102Z,172.07
2019-03-23T06:28:28.582Z,172.13
2019-03-23T06:30:57.013Z,170.20
2019-03-23T06:33:25.425Z,157.27
2019-03-23T06:35:53.804Z,161.97
2019-03-23T06:38:22.220Z,151.50
2019-03-23T06:40:51.650Z,154.42
2019-03-23T06:43:20.116Z,156.50
2019-03-23T06:45:48.493Z,153.93
2019-03-23T06:48:17.053Z,145.90
2019-03-23T06:50:45.453Z,148.47
2019-03-23T06:53:13.846Z,164.85
2019-03-23T06:55:42.284Z,160.18
2019-03-23T06:58:10.675Z,148.57
2019-03-23T07:00:39.113Z,142.10
2019-03-23T07:03:07.504Z,140.75
2019-03-23T07:05:35.929Z,150.68
2019-03-23T07:08:04.338Z,144.75
2019-03-23T07:10:32.778Z,137.18
2019-03-23T07:13:01.219Z,149.57
2019-03-23T07:15:29.742Z,148.78
2019-03-23T07:17:58.190Z,138.12
2019-03-23T07:20:26.597Z,143.82
2019-03-23T07:22:55.098Z,126.27
2019-03-23T07:25:23.497Z,133.40
2019-03-23T07:27:51.942Z,138.40
2019-03-23T07:30:20.488Z,136.85
2019-03-23T07:32:49.029Z,128.05
2019-03-23T07:35:17.737Z,127.95
2019-03-23T07:37:46.172Z,128.95
2019-03-23T07:40:14.627Z,134.50
2019-03-23T07:42:48.561Z,129.50
2019-03-23T07:45:17.003Z,123.00
2019-03-23T07:47:45.421Z,121.22
2019-03-23T07:50:14.581Z,122.20
2019-03-23T07:52:43.066Z,120.55
2019-03-23T07:55:13.882Z,121.50
2019-03-23T07:57:42.269Z,117.00
2019-03-23T08:00:13.491Z,125.55
2019-03-23T08:02:41.933Z,121.75
2019-03-23T08:05:10.519Z,114.12
2019-03-23T08:07:38.918Z,115.40
2019-03-23T08:10:08.142Z,107.87
2019-03-23T08:12:36.557Z,111.75
2019-03-23T08:15:08.890Z,119.57
2019-03-23T08:17:37.276Z,118.80
2019-03-23T08:20:06.756Z,111.62
2019-03-23T08:22:35.173Z,114.08
2019-03-23T08:25:05.102Z,109.65
2019-03-23T08:27:33.517Z,121.67
2019-03-23T08:30:01.948Z,111.22
2019-03-23T08:32:30.359Z,109.10
2019-03-23T08:34:58.795Z,115.08
2019-03-23T08:37:27.206Z,108.75
2019-03-23T08:39:55.589Z,102.92
2019-03-23T08:42:24.060Z,107.80
2019-03-23T08:44:52.460Z,104.72
2019-03-23T08:47:20.919Z,105.00
2019-03-23T08:49:49.305Z,107.85
2019-03-23T08:52:17.763Z,106.72
2019-03-23T08:54:46.206Z,101.97
2019-03-23T08:57:14.577Z,109.40
2019-03-23T08:59:43.040Z,103.62
2019-03-23T09:02:11.417Z,104.50
2019-03-23T09:04:39.886Z,107.80
2019-03-23T09:07:08.330Z,107.70
2019-03-23T09:09:36.794Z,105.03
2019-03-23T09:12:05.228Z,106.10
2019-03-23T09:14:33.690Z,101.87
2019-03-23T09:17:02.084Z,97.17
2019-03-23T09:19:30.560Z,88.95
2019-03-23T09:21:58.988Z,98.05
2019-03-23T09:24:27.406Z,107.72
2019-03-23T09:26:55.826Z,98.03
2019-03-23T09:29:24.358Z,94.80
2019-03-23T09:31:52.745Z,99.90
2019-03-23T09:34:21.253Z,101.58
2019-03-23T09:36:49.695Z,95.07
2019-03-23T09:39:18.153Z,95.38
2019-03-23T09:41:46.543Z,96.37
2019-03-23T09:44:15.049Z,96.72
2019-03-23T09:46:43.452Z,97.30
2019-03-23T09:49:11.866Z,95.22
2019-03-23T09:51:40.275Z,91.65
2019-03-23T09:54:08.760Z,94.92
2019-03-23T09:56:37.157Z,95.38
2019-03-23T09:59:05.558Z,97.20
2019-03-23T10:01:34.066Z,91.75
2019-03-23T10:04:02.459Z,88.75
2019-03-23T10:06:31.174Z,79.30
2019-03-23T10:08:59.620Z,83.12
2019-03-23T10:11:28.456Z,88.15
2019-03-23T10:13:56.846Z,85.57
2019-03-23T10:16:25.854Z,81.72
2019-03-23T10:18:55.733Z,84.83
2019-03-23T10:21:32.781Z,80.95
2019-03-23T10:24:01.160Z,86.45
2019-03-23T10:26:29.805Z,88.27
2019-03-23T10:28:58.206Z,86.30
2019-03-23T10:31:26.596Z,93.35
2019-03-23T10:33:55.100Z,83.20
2019-03-23T10:36:23.561Z,97.17
2019-03-23T10:38:51.976Z,98.30
2019-03-23T10:41:20.361Z,98.65
2019-03-23T10:43:48.799Z,84.62
2019-03-23T10:46:17.223Z,83.37
2019-03-23T10:48:45.718Z,89.45
2019-03-23T10:51:15.109Z,96.60
2019-03-23T10:53:43.545Z,87.60
2019-03-23T10:56:11.993Z,86.72
2019-03-23T10:58:40.386Z,88.75
2019-03-23T11:01:09.834Z,92.70
2019-03-23T11:03:38.235Z,89.25
2019-03-23T11:06:06.650Z,86.08
2019-03-23T11:08:35.042Z,87.42
2019-03-23T11:11:03.473Z,88.60
2019-03-23T11:13:31.858Z,84.40
2019-03-23T11:16:00.254Z,95.17
2019-03-23T11:18:28.679Z,88.37
2019-03-23T11:20:57.162Z,83.97
2019-03-23T11:23:25.610Z,90.32
2019-03-23T11:26:01.327Z,87.53
2019-03-23T11:28:29.825Z,86.92
2019-03-23T11:30:59.341Z,78.52
2019-03-23T11:33:27.734Z,84.07
2019-03-23T11:35:57.948Z,81.70
2019-03-23T11:38:26.225Z,80.65
2019-03-23T11:40:55.359Z,79.00
2019-03-23T11:43:23.887Z,86.20
2019-03-23T11:45:52.298Z,84.13
2019-03-23T11:48:20.802Z,90.55
2019-03-23T11:50:49.214Z,85.20
2019-03-23T11:53:17.662Z,83.62
2019-03-23T11:55:46.139Z,84.13
2019-03-23T11:58:14.590Z,92.57
2019-03-23T12:00:42.973Z,68.22
2019-03-23T12:03:11.536Z,61.73
2019-03-23T12:05:40.962Z,70.87
2019-03-23T12:08:09.345Z,57.35
2019-03-23T12:10:37.877Z,54.35
2019-03-23T12:13:06.305Z,42.03
2019-03-23T12:15:34.770Z,48.35
2019-03-23T12:18:03.170Z,47.33
2019-03-23T12:20:31.649Z,48.70
2019-03-23T12:23:00.057Z,40.10
2019-03-23T12:25:28.478Z,32.95
2019-03-23T12:27:56.889Z,28.98
2019-03-23T12:30:25.332Z,26.20
2019-03-23T12:32:53.737Z,24.10
2019-03-23T12:35:22.147Z,26.17
2019-03-23T12:37:50.538Z,33.08
2019-03-23T12:40:18.965Z,27.90
2019-03-23T12:42:47.355Z,25.40
2019-03-23T12:45:15.979Z,21.35
2019-03-23T12:47:44.474Z,25.60
2019-03-23T12:50:12.980Z,32.42
2019-03-23T12:52:41.376Z,24.25
2019-03-23T12:55:13.832Z,18.95
2019-03-23T12:57:42.213Z,26.02
2019-03-23T13:00:15.537Z,22.90
2019-03-23T13:02:43.916Z,29.37
2019-03-23T13:05:12.335Z,23.40
2019-03-23T13:07:40.744Z,24.60
2019-03-23T13:10:11.575Z,24.87
2019-03-23T13:12:39.981Z,19.65
2019-03-23T13:15:10.445Z,25.32
2019-03-23T13:17:38.892Z,20.90
2019-03-23T13:20:08.814Z,15.30
2019-03-23T13:22:37.381Z,20.40
2019-03-23T13:25:10.174Z,18.42
2019-03-23T13:27:38.708Z,19.05
2019-03-23T13:30:09.539Z,21.70
2019-03-23T13:32:38.006Z,22.30
2019-03-23T13:35:06.423Z,11.35
2019-03-23T13:37:34.811Z,15.90
2019-03-23T13:40:04.095Z,41.53
2019-03-23T13:42:34.117Z,21.97
2019-03-23T13:45:02.714Z,22.32
2019-03-23T13:47:31.121Z,18.37
2019-03-23T13:49:59.596Z,23.92
2019-03-23T13:52:28.042Z,17.85
2019-03-23T13:54:56.492Z,18.30
2019-03-23T13:57:24.874Z,18.10
2019-03-23T13:59:53.318Z,14.70
2019-03-23T14:02:21.773Z,14.78
2019-03-23T14:04:50.429Z,22.32
2019-03-23T14:07:18.795Z,17.25
2019-03-23T14:09:47.275Z,24.85
2019-03-23T14:12:15.715Z,19.55
2019-03-23T14:14:47.302Z,18.98
2019-03-23T14:17:15.765Z,20.02
2019-03-23T14:19:45.165Z,19.90
2019-03-23T14:22:13.623Z,22.17
2019-03-23T14:24:42.052Z,18.30
2019-03-23T14:27:10.442Z,29.72
2019-03-23T14:29:38.842Z,20.35
2019-03-23T14:32:07.267Z,24.72
2019-03-23T14:34:35.663Z,18.10
2019-03-23T14:37:05.090Z,26.27
2019-03-23T14:39:33.481Z,20.23
2019-03-23T14:42:04.968Z,27.55
2019-03-23T14:44:32.058Z,17.02
2019-03-23T14:47:01.534Z,17.00
2019-03-23T14:49:29.918Z,20.02
2019-03-23T14:51:58.360Z,25.00
2019-03-23T14:54:26.847Z,22.17
2019-03-23T14:56:55.391Z,22.73
2019-03-23T14:59:23.935Z,17.45
2019-03-23T15:01:52.363Z,19.82
2019-03-23T15:04:20.890Z,22.07
2019-03-23T15:06:49.287Z,22.73
2019-03-23T15:09:17.805Z,29.90
2019-03-23T15:11:46.187Z,23.60
2019-03-23T15:14:14.710Z,22.70
2019-03-23T15:16:43.151Z,27.05
2019-03-23T15:19:11.653Z,23.07
2019-03-23T15:21:40.037Z,24.63
2019-03-23T15:24:08.589Z,16.35
2019-03-23T15:26:37.127Z,22.75
2019-03-23T15:29:05.633Z,21.23
2019-03-23T15:31:34.022Z,19.15
2019-03-23T15:34:02.543Z,34.48
2019-03-23T15:36:30.945Z,21.73
2019-03-23T15:38:59.370Z,19.95
2019-03-23T15:41:27.786Z,24.98
2019-03-23T15:43:56.262Z,19.23
2019-03-23T15:46:24.666Z,24.20
2019-03-23T15:48:53.123Z,20.90
2019-03-23T15:51:21.554Z,20.25
2019-03-23T15:53:50.091Z,26.52
2019-03-23T15:56:18.463Z,24.05
2019-03-23T15:58:46.914Z,20.00
2019-03-23T16:01:15.322Z,24.25
2019-03-23T16:03:44.796Z,33.85
2019-03-23T16:06:13.185Z,30.65
2019-03-23T16:08:41.598Z,21.75
2019-03-23T16:11:10.021Z,21.17
2019-03-23T16:13:38.481Z,21.82
2019-03-23T16:16:07.899Z,21.73
2019-03-23T16:18:36.305Z,24.77
2019-03-23T16:21:04.708Z,24.52
2019-03-23T16:23:33.145Z,20.85
2019-03-23T16:26:01.546Z,28.27
2019-03-23T16:28:30.021Z,29.12
2019-03-23T16:30:59.439Z,18.30
2019-03-23T16:33:27.812Z,22.58
2019-03-23T16:35:56.226Z,37.05
2019-03-23T16:38:24.667Z,26.93
2019-03-23T16:40:53.081Z,22.02
2019-03-23T16:43:23.525Z,21.30
2019-03-23T16:45:51.933Z,31.30
2019-03-23T16:48:20.477Z,23.77
2019-03-23T16:50:48.888Z,20.57
2019-03-23T16:53:17.314Z,27.50
2019-03-23T16:55:45.784Z,31.20
2019-03-23T16:58:16.431Z,28.98
2019-03-23T17:00:44.353Z,24.10
2019-03-23T17:03:12.802Z,27.80
2019-03-23T17:05:42.329Z,27.17
2019-03-23T17:08:10.710Z,27.32
2019-03-23T17:10:39.177Z,23.35
2019-03-23T17:13:07.557Z,24.90
2019-03-23T17:15:35.992Z,33.33
2019-03-23T17:18:04.438Z,22.95
2019-03-23T17:20:32.896Z,25.27
2019-03-23T17:23:01.323Z,28.00
2019-03-23T17:25:29.795Z,27.10
2019-03-23T17:27:58.158Z,34.55
2019-03-23T17:30:34.995Z,32.00
2019-03-23T17:33:03.377Z,31.23
2019-03-23T17:35:31.827Z,22.62
2019-03-23T17:38:00.276Z,28.98
2019-03-23T17:40:28.737Z,31.27
2019-03-23T17:43:05.614Z,28.42
2019-03-23T17:45:27.262Z,20.23
2019-03-23T17:47:55.708Z,28.12
2019-03-23T17:50:24.111Z,28.73
2019-03-23T17:52:52.546Z,28.17
2019-03-23T17:55:20.951Z,28.47
2019-03-23T17:57:50.321Z,33.83
2019-03-23T18:00:31.593Z,31.87
2019-03-23T18:03:26.947Z,35.78
2019-03-23T18:05:55.970Z,33.55
2019-03-23T18:08:24.813Z,31.17
2019-03-23T18:10:53.686Z,31.27
2019-03-23T18:19:52.087Z,34.48
2019-03-23T18:22:20.497Z,33.70
2019-03-23T18:24:48.910Z,30.10
2019-03-23T18:27:17.358Z,27.10
2019-03-23T18:29:47.501Z,32.73
2019-03-23T18:32:16.055Z,33.28
2019-03-23T18:34:44.571Z,33.83
2019-03-23T18:37:13.004Z,36.05
2019-03-23T18:39:54.121Z,39.13
2019-03-23T18:42:22.507Z,31.65
2019-03-23T18:44:51.024Z,31.77
2019-03-23T18:47:30.382Z,27.95
2019-03-23T18:49:57.660Z,31.87
2019-03-23T18:52:26.134Z,43.45
2019-03-23T18:54:54.716Z,28.38
2019-03-23T18:57:29.141Z,39.50
2019-03-23T18:59:57.582Z,37.63
2019-03-23T19:02:26.008Z,29.45
2019-03-23T19:04:54.587Z,34.15
2019-03-23T19:07:23.031Z,35.23
2019-03-23T19:09:51.444Z,38.83
2019-03-23T19:12:19.963Z,32.60
2019-03-23T19:14:48.370Z,42.03
2019-03-23T19:17:16.794Z,30.88
2019-03-23T19:19:45.381Z,32.80
2019-03-23T19:22:13.853Z,33.30
2019-03-23T19:24:42.248Z,41.20
2019-03-23T19:27:10.658Z,35.30
2019-03-23T19:29:39.046Z,45.38
2019-03-23T19:32:07.493Z,40.88
2019-03-23T19:34:35.901Z,37.95
2019-03-23T19:37:04.295Z,42.67
2019-03-23T19:39:32.730Z,48.42
2019-03-23T19:42:01.132Z,43.95
2019-03-23T19:44:30.780Z,38.33
2019-03-23T19:46:59.560Z,38.48
2019-03-23T19:49:31.885Z,43.95
2019-03-23T19:52:00.619Z,37.28
2019-03-23T19:54:29.088Z,39.78
2019-03-23T19:56:57.688Z,42.65
2019-03-23T19:59:26.239Z,32.70
2019-03-23T20:01:55.558Z,35.90
2019-03-23T20:04:23.907Z,46.25
2019-03-23T20:06:52.355Z,30.95
2019-03-23T20:09:20.838Z,34.55
2019-03-23T20:11:49.411Z,47.35
2019-03-23T20:14:19.191Z,31.73
2019-03-23T20:16:47.826Z,31.33
2019-03-23T20:19:16.593Z,31.33
2019-03-23T20:21:45.067Z,31.93
2019-03-23T20:24:13.774Z,32.45
2019-03-23T20:26:42.476Z,33.28
2019-03-23T20:29:10.796Z,50.58
2019-03-23T20:31:39.241Z,42.95
2019-03-23T20:34:07.789Z,30.02
2019-03-23T20:36:36.139Z,29.25
2019-03-23T20:39:06.811Z,33.90
2019-03-23T20:41:35.322Z,42.45
2019-03-23T20:44:09.335Z,27.87
2019-03-23T20:46:34.870Z,42.23
2019-03-23T20:49:03.209Z,42.33
2019-03-23T20:51:31.739Z,30.02
2019-03-23T20:54:00.454Z,32.55
2019-03-23T20:56:29.179Z,35.20
2019-03-23T20:58:59.816Z,30.20
2019-03-23T21:01:28.382Z,32.03
2019-03-23T21:03:57.066Z,42.27
2019-03-23T21:06:25.704Z,33.30
2019-03-23T21:08:54.143Z,30.30
2019-03-23T21:11:22.551Z,25.05
2019-03-23T21:13:52.017Z,31.68
2019-03-23T21:16:40.085Z,27.93
2019-03-23T21:19:08.583Z,38.50
2019-03-23T21:21:39.846Z,41.28
2019-03-23T21:24:08.513Z,43.68
2019-03-23T21:26:38.168Z,42.03
2019-03-23T21:29:06.638Z,45.05
2019-03-23T21:31:35.196Z,41.77
2019-03-23T21:34:06.252Z,43.28
2019-03-23T21:36:35.404Z,40.40
2019-03-23T21:39:05.784Z,39.75
2019-03-23T21:41:34.233Z,45.98
2019-03-23T21:44:04.663Z,38.35
2019-03-23T21:46:32.785Z,47.05
2019-03-23T21:49:01.261Z,47.48
2019-03-23T21:51:29.943Z,51.30
2019-03-23T21:53:58.632Z,38.08
2019-03-23T21:56:27.190Z,48.60
2019-03-23T21:58:55.651Z,42.05
2019-03-23T22:01:27.596Z,48.40
2019-03-23T22:03:55.968Z,33.73
2019-03-23T22:06:24.422Z,40.17
2019-03-23T22:08:52.803Z,54.33
2019-03-23T22:11:21.384Z,38.08
2019-03-23T22:13:49.811Z,36.95
2019-03-23T22:16:18.185Z,36.00
2019-03-23T22:18:46.601Z,39.27
2019-03-23T22:21:15.052Z,39.23
2019-03-23T22:23:43.488Z,37.78
2019-03-23T22:26:11.973Z,43.10
2019-03-23T22:28:40.378Z,40.65
2019-03-23T22:31:08.767Z,36.13
2019-03-23T22:33:37.287Z,38.73
2019-03-23T22:36:05.670Z,42.25
2019-03-23T22:38:34.091Z,39.83
2019-03-23T22:41:03.528Z,40.75
2019-03-23T22:43:31.929Z,35.60
2019-03-23T22:46:00.366Z,44.10
2019-03-23T22:48:28.780Z,38.80
2019-03-23T22:50:57.214Z,39.03
2019-03-23T22:53:25.726Z,38.48
2019-03-23T22:55:54.120Z,38.10
2019-03-23T22:58:22.520Z,38.28
2019-03-23T23:00:50.984Z,44.13
2019-03-23T23:03:19.391Z,38.48
2019-03-23T23:05:47.778Z,45.48
2019-03-23T23:08:16.429Z,37.40
2019-03-23T23:10:44.821Z,47.85
2019-03-23T23:13:13.552Z,38.28
2019-03-23T23:15:41.979Z,37.98
2019-03-23T23:18:10.359Z,37.00
2019-03-23T23:20:38.763Z,31.57
2019-03-23T23:23:07.149Z,32.00
2019-03-23T23:25:55.014Z,26.55
2019-03-23T23:28:23.519Z,32.75
2019-03-23T23:30:51.922Z,31.52
2019-03-23T23:33:20.322Z,47.35
2019-03-23T23:35:48.773Z,39.83
2019-03-23T23:38:17.150Z,53.05
2019-03-23T23:40:45.583Z,37.88
2019-03-23T23:43:13.970Z,34.78
2019-03-23T23:45:43.456Z,43.68
2019-03-23T23:48:11.842Z,31.48
2019-03-23T23:50:40.281Z,37.10
2019-03-23T23:53:08.680Z,42.15
2019-03-23T23:55:37.062Z,42.35
2019-03-23T23:58:05.501Z,50.10
